createdAt,value
2018-09-20T00:01:14.694Z,21.90
2018-09-20T00:03:43.888Z,21.90
2018-09-20T00:06:13.001Z,21.80
2018-09-20T00:08:42.196Z,21.60
2018-09-20T00:11:11.366Z,21.60
2018-09-20T00:13:40.559Z,21.60
2018-09-20T00:16:09.701Z,21.70
2018-09-20T00:18:39.040Z,21.70
2018-09-20T00:21:08.225Z,21.40
2018-09-20T00:23:37.540Z,21.40
2018-09-20T00:26:06.965Z,21.40
2018-09-20T00:28:36.162Z,21.30
2018-09-20T00:31:05.426Z,21.30
2018-09-20T00:33:34.594Z,21.30
2018-09-20T00:36:03.771Z,21.20
2018-09-20T00:38:32.929Z,21.10
2018-09-20T00:41:02.126Z,21.00
2018-09-20T00:43:31.281Z,21.20
2018-09-20T00:46:00.433Z,21.20
2018-09-20T00:48:29.610Z,21.30
2018-09-20T00:50:58.779Z,21.30
2018-09-20T00:53:27.922Z,21.20
2018-09-20T00:55:57.089Z,21.30
2018-09-20T00:58:26.190Z,21.30
2018-09-20T01:00:55.369Z,21.40
2018-09-20T01:03:24.537Z,21.40
2018-09-20T01:05:53.686Z,21.10
2018-09-20T01:08:22.824Z,21.00
2018-09-20T01:10:52.027Z,21.00
2018-09-20T01:13:21.154Z,21.00
2018-09-20T01:15:50.790Z,20.80
2018-09-20T01:18:19.937Z,20.50
2018-09-20T01:20:49.104Z,20.40
2018-09-20T01:23:18.246Z,20.60
2018-09-20T01:25:47.430Z,20.60
2018-09-20T01:28:16.569Z,20.70
2018-09-20T01:30:45.715Z,20.70
2018-09-20T01:33:14.877Z,20.80
2018-09-20T01:35:44.042Z,20.80
2018-09-20T01:38:13.231Z,20.90
2018-09-20T01:40:42.527Z,20.80
2018-09-20T01:43:11.717Z,20.80
2018-09-20T01:45:40.854Z,20.80
2018-09-20T01:48:09.972Z,20.60
2018-09-20T01:50:39.139Z,20.30
2018-09-20T01:53:08.330Z,20.60
2018-09-20T01:55:38.059Z,20.60
2018-09-20T01:58:07.218Z,20.60
2018-09-20T02:00:36.435Z,20.50
2018-09-20T02:03:05.654Z,20.50
2018-09-20T02:05:34.739Z,20.50
2018-09-20T02:08:03.895Z,20.40
2018-09-20T02:10:33.022Z,20.20
2018-09-20T02:13:02.259Z,20.10
2018-09-20T02:15:31.514Z,20.20
2018-09-20T02:18:00.715Z,20.20
2018-09-20T02:20:29.922Z,20.10
2018-09-20T02:22:59.125Z,20.30
2018-09-20T02:25:28.274Z,20.50
2018-09-20T02:27:57.425Z,20.30
2018-09-20T02:30:26.596Z,20.20
2018-09-20T02:32:55.779Z,20.30
2018-09-20T02:35:24.896Z,20.40
2018-09-20T02:37:54.051Z,20.50
2018-09-20T02:40:23.318Z,20.50
2018-09-20T02:42:52.382Z,20.50
2018-09-20T02:45:21.526Z,20.40
2018-09-20T02:47:50.643Z,20.20
2018-09-20T02:50:19.806Z,20.30
2018-09-20T02:52:49.109Z,20.10
2018-09-20T02:55:18.540Z,20.10
2018-09-20T02:57:47.816Z,20.10
2018-09-20T03:00:16.982Z,20.10
2018-09-20T03:02:46.131Z,20.20
2018-09-20T03:05:15.302Z,20.30
2018-09-20T03:07:44.474Z,20.30
2018-09-20T03:10:13.626Z,20.10
2018-09-20T03:12:42.784Z,19.90
2018-09-20T03:15:11.925Z,19.90
2018-09-20T03:17:41.054Z,19.70
2018-09-20T03:20:10.190Z,19.90
2018-09-20T03:22:39.346Z,20.00
2018-09-20T03:25:08.483Z,19.80
2018-09-20T03:27:37.618Z,19.90
2018-09-20T03:30:06.757Z,20.00
2018-09-20T03:32:35.916Z,20.00
2018-09-20T03:35:05.109Z,20.10
2018-09-20T03:37:34.234Z,20.10
2018-09-20T03:40:03.433Z,20.00
2018-09-20T03:42:32.589Z,20.00
2018-09-20T03:45:01.758Z,19.80
2018-09-20T03:47:30.889Z,19.70
2018-09-20T03:50:00.034Z,19.80
2018-09-20T03:52:29.195Z,19.60
2018-09-20T03:54:58.346Z,19.70
2018-09-20T03:57:27.568Z,19.70
2018-09-20T03:59:56.692Z,19.70
2018-09-20T04:02:25.832Z,19.40
2018-09-20T04:04:55.013Z,19.40
2018-09-20T04:07:24.137Z,19.40
2018-09-20T04:09:54.033Z,19.50
2018-09-20T04:12:23.188Z,19.40
2018-09-20T04:14:52.352Z,19.20
2018-09-20T04:17:21.550Z,19.40
2018-09-20T04:19:50.798Z,19.20
2018-09-20T04:22:19.946Z,19.30
2018-09-20T04:24:49.199Z,19.50
2018-09-20T04:27:18.365Z,19.50
2018-09-20T04:29:47.528Z,19.60
2018-09-20T04:32:16.678Z,19.70
2018-09-20T04:34:45.828Z,19.50
2018-09-20T04:37:14.978Z,19.30
2018-09-20T04:39:44.130Z,19.20
2018-09-20T04:42:13.294Z,19.50
2018-09-20T04:44:42.435Z,19.60
2018-09-20T04:47:11.613Z,19.60
2018-09-20T04:49:40.743Z,19.60
2018-09-20T04:52:10.661Z,19.80
2018-09-20T04:54:39.806Z,19.60
2018-09-20T04:57:08.954Z,19.40
2018-09-20T04:59:38.734Z,19.30
2018-09-20T05:02:07.952Z,19.60
2018-09-20T05:04:37.188Z,19.60
2018-09-20T05:07:06.369Z,19.60
2018-09-20T05:09:35.618Z,19.50
2018-09-20T05:12:04.725Z,19.70
2018-09-20T05:14:33.911Z,19.70
2018-09-20T05:17:03.083Z,19.40
2018-09-20T05:19:32.238Z,19.50
2018-09-20T05:22:01.383Z,19.70
2018-09-20T05:24:30.516Z,19.80
2018-09-20T05:26:59.821Z,19.80
2018-09-20T05:29:28.967Z,19.80
2018-09-20T05:31:58.138Z,19.80
2018-09-20T05:34:27.286Z,19.90
2018-09-20T05:36:56.455Z,19.90
2018-09-20T05:39:25.603Z,20.00
2018-09-20T05:41:54.754Z,20.00
2018-09-20T05:44:23.958Z,20.10
2018-09-20T05:46:53.210Z,20.10
2018-09-20T05:49:22.372Z,20.20
2018-09-20T05:51:51.612Z,20.10
2018-09-20T05:54:20.738Z,20.10
2018-09-20T05:56:49.952Z,20.00
2018-09-20T05:59:19.099Z,20.00
2018-09-20T06:01:48.351Z,19.90
2018-09-20T06:04:17.507Z,19.90
2018-09-20T06:06:46.695Z,19.90
2018-09-20T06:09:16.037Z,20.00
2018-09-20T06:11:46.014Z,20.00
2018-09-20T06:14:15.175Z,20.00
2018-09-20T06:16:44.459Z,20.10
2018-09-20T06:19:13.692Z,20.20
2018-09-20T06:21:42.860Z,20.20
2018-09-20T06:24:11.993Z,20.10
2018-09-20T06:26:41.213Z,20.10
2018-09-20T06:29:10.374Z,20.20
2018-09-20T06:31:39.515Z,20.30
2018-09-20T06:34:08.605Z,20.50
2018-09-20T06:36:37.759Z,20.50
2018-09-20T06:39:08.686Z,20.50
2018-09-20T06:41:38.039Z,20.50
2018-09-20T06:44:07.186Z,20.40
2018-09-20T06:46:36.335Z,20.50
2018-09-20T06:49:05.541Z,20.70
2018-09-20T06:51:34.832Z,20.80
2018-09-20T06:54:03.969Z,20.80
2018-09-20T06:56:33.219Z,20.70
2018-09-20T06:59:02.345Z,20.70
2018-09-20T07:01:31.668Z,20.90
2018-09-20T07:04:00.918Z,21.00
2018-09-20T07:06:30.091Z,21.10
2018-09-20T07:08:59.202Z,21.10
2018-09-20T07:11:28.405Z,21.20
2018-09-20T07:13:57.525Z,21.30
2018-09-20T07:16:27.074Z,21.50
2018-09-20T07:18:56.280Z,21.60
2018-09-20T07:21:25.456Z,21.60
2018-09-20T07:23:54.730Z,21.70
2018-09-20T07:26:23.865Z,21.70
2018-09-20T07:28:53.026Z,21.60
2018-09-20T07:31:22.230Z,21.60
2018-09-20T07:33:51.428Z,21.70
2018-09-20T07:36:20.583Z,21.70
2018-09-20T07:38:49.708Z,21.80
2018-09-20T07:41:18.865Z,21.70
2018-09-20T07:43:48.006Z,21.60
2018-09-20T07:46:17.177Z,21.70
2018-09-20T07:48:46.350Z,21.60
2018-09-20T07:51:15.589Z,21.60
2018-09-20T07:53:44.869Z,21.60
2018-09-20T07:56:14.056Z,21.60
2018-09-20T07:58:43.168Z,21.60
2018-09-20T08:01:12.354Z,21.70
2018-09-20T08:03:41.492Z,21.70
2018-09-20T08:06:10.633Z,21.80
2018-09-20T08:08:39.817Z,21.80
2018-09-20T08:11:08.964Z,22.00
2018-09-20T08:13:38.261Z,22.00
2018-09-20T08:16:07.443Z,22.10
2018-09-20T08:18:36.637Z,22.30
2018-09-20T08:21:05.995Z,22.40
2018-09-20T08:23:35.175Z,22.50
2018-09-20T08:26:04.381Z,22.70
2018-09-20T08:28:33.530Z,22.80
2018-09-20T08:31:02.658Z,23.00
2018-09-20T08:33:31.857Z,23.20
2018-09-20T08:36:00.981Z,23.40
2018-09-20T08:38:32.899Z,23.50
2018-09-20T08:41:02.050Z,23.60
2018-09-20T08:43:31.268Z,23.80
2018-09-20T08:46:00.453Z,23.90
2018-09-20T08:48:29.642Z,24.00
2018-09-20T08:50:58.819Z,24.00
2018-09-20T08:53:28.546Z,24.20
2018-09-20T08:55:57.732Z,24.30
2018-09-20T08:58:26.872Z,24.40
2018-09-20T09:00:56.094Z,24.50
2018-09-20T09:03:25.236Z,24.50
2018-09-20T09:05:54.555Z,24.60
2018-09-20T09:08:23.659Z,24.70
2018-09-20T09:10:52.818Z,24.70
2018-09-20T09:13:21.929Z,24.80
2018-09-20T09:15:51.117Z,24.80
2018-09-20T09:18:20.386Z,24.80
2018-09-20T09:20:49.492Z,24.80
2018-09-20T09:23:18.636Z,24.70
2018-09-20T09:25:47.738Z,24.80
2018-09-20T09:28:16.854Z,24.90
2018-09-20T09:30:46.008Z,25.00
2018-09-20T09:33:15.157Z,24.90
2018-09-20T09:35:44.333Z,25.00
2018-09-20T09:38:13.599Z,25.00
2018-09-20T09:40:42.744Z,25.20
2018-09-20T09:43:11.881Z,25.30
2018-09-20T09:45:40.979Z,25.20
2018-09-20T09:48:10.146Z,25.20
2018-09-20T09:50:39.271Z,25.30
2018-09-20T09:53:08.408Z,25.30
2018-09-20T09:55:37.523Z,25.50
2018-09-20T09:58:06.690Z,25.80
2018-09-20T10:00:37.953Z,26.00
2018-09-20T10:03:07.112Z,25.90
2018-09-20T10:05:36.244Z,25.80
2018-09-20T10:08:05.522Z,25.70
2018-09-20T10:10:34.712Z,25.70
2018-09-20T10:13:03.811Z,25.70
2018-09-20T10:15:32.963Z,25.80
2018-09-20T10:18:02.114Z,26.00
2018-09-20T10:20:31.242Z,26.00
2018-09-20T10:23:01.076Z,26.00
2018-09-20T10:25:30.194Z,26.00
2018-09-20T10:27:59.373Z,26.00
2018-09-20T10:30:28.433Z,26.00
2018-09-20T10:32:57.573Z,26.10
2018-09-20T10:35:28.185Z,26.20
2018-09-20T10:37:57.308Z,26.20
2018-09-20T10:40:26.460Z,26.30
2018-09-20T10:42:55.573Z,26.40
2018-09-20T10:45:24.712Z,26.30
2018-09-20T10:47:53.804Z,26.30
2018-09-20T10:50:23.154Z,26.20
2018-09-20T10:52:53.162Z,26.20
2018-09-20T10:55:22.371Z,26.30
2018-09-20T10:57:51.519Z,26.40
2018-09-20T11:00:20.687Z,26.40
2018-09-20T11:02:49.956Z,26.50
2018-09-20T11:05:19.322Z,26.50
2018-09-20T11:07:48.419Z,26.70
2018-09-20T11:10:17.714Z,26.90
2018-09-20T11:12:46.838Z,27.00
2018-09-20T11:15:16.018Z,27.00
2018-09-20T11:17:45.178Z,26.90
2018-09-20T11:20:14.343Z,26.90
2018-09-20T11:22:43.745Z,27.00
2018-09-20T11:25:12.908Z,27.10
2018-09-20T11:27:42.169Z,27.10
2018-09-20T11:30:11.466Z,27.00
2018-09-20T11:32:40.631Z,26.90
2018-09-20T11:35:09.814Z,26.80
2018-09-20T11:37:39.111Z,26.80
2018-09-20T11:40:08.464Z,27.00
2018-09-20T11:42:37.635Z,27.20
2018-09-20T11:45:06.878Z,27.30
2018-09-20T11:47:36.068Z,27.20
2018-09-20T11:50:06.216Z,27.20
2018-09-20T11:52:35.505Z,27.40
2018-09-20T11:55:04.749Z,27.50
2018-09-20T11:57:33.917Z,27.50
2018-09-20T12:00:03.135Z,27.50
2018-09-20T12:02:32.395Z,27.40
2018-09-20T12:05:01.695Z,27.40
2018-09-20T12:07:30.962Z,27.40
2018-09-20T12:10:00.237Z,27.40
2018-09-20T12:12:29.394Z,27.50
2018-09-20T12:14:58.591Z,27.60
2018-09-20T12:17:27.714Z,27.70
2018-09-20T12:19:57.092Z,27.90
2018-09-20T12:22:26.220Z,27.90
2018-09-20T12:24:55.358Z,28.00
2018-09-20T12:27:24.578Z,28.30
2018-09-20T12:29:53.754Z,28.40
2018-09-20T12:32:23.257Z,28.50
2018-09-20T12:34:52.553Z,28.20
2018-09-20T12:37:26.057Z,27.90
2018-09-20T12:39:55.218Z,27.90
2018-09-20T12:42:24.417Z,28.00
2018-09-20T12:44:53.732Z,28.30
2018-09-20T12:47:22.989Z,28.50
2018-09-20T12:49:52.232Z,28.70
2018-09-20T12:52:21.402Z,28.70
2018-09-20T12:54:50.652Z,28.70
2018-09-20T12:57:19.836Z,28.80
2018-09-20T12:59:48.992Z,28.80
2018-09-20T13:02:18.391Z,28.70
2018-09-20T13:04:47.574Z,28.80
2018-09-20T13:07:16.743Z,28.90
2018-09-20T13:09:46.276Z,28.90
2018-09-20T13:12:15.536Z,29.00
2018-09-20T13:14:45.134Z,29.00
2018-09-20T13:17:14.356Z,29.20
2018-09-20T13:19:43.545Z,29.20
2018-09-20T13:22:12.752Z,29.10
2018-09-20T13:24:41.932Z,29.10
2018-09-20T13:27:11.111Z,29.20
2018-09-20T13:29:40.291Z,29.30
2018-09-20T13:32:09.499Z,29.40
2018-09-20T13:34:38.667Z,29.40
2018-09-20T13:37:07.950Z,29.40
2018-09-20T13:39:37.163Z,29.50
2018-09-20T13:42:06.359Z,29.30
2018-09-20T13:44:35.545Z,29.30
2018-09-20T13:47:05.125Z,29.10
2018-09-20T13:49:34.406Z,29.10
2018-09-20T13:52:03.711Z,29.10
2018-09-20T13:54:33.416Z,29.10
2018-09-20T13:57:02.635Z,29.10
2018-09-20T13:59:31.815Z,29.10
2018-09-20T14:02:00.963Z,29.10
2018-09-20T14:04:30.147Z,29.20
2018-09-20T14:06:59.356Z,29.10
2018-09-20T14:09:28.555Z,29.10
2018-09-20T14:11:57.718Z,29.10
2018-09-20T14:14:26.901Z,29.00
2018-09-20T14:16:57.176Z,29.10
2018-09-20T14:19:26.364Z,29.00
2018-09-20T14:21:55.546Z,28.90
2018-09-20T14:24:24.850Z,28.90
2018-09-20T14:26:54.119Z,28.90
2018-09-20T14:29:23.395Z,28.90
2018-09-20T14:31:52.602Z,28.70
2018-09-20T14:34:21.836Z,29.00
2018-09-20T14:36:51.302Z,28.80
2018-09-20T14:39:20.597Z,28.80
2018-09-20T14:41:50.083Z,28.60
2018-09-20T14:44:25.806Z,28.60
2018-09-20T14:46:55.729Z,28.50
2018-09-20T14:49:24.915Z,28.50
2018-09-20T14:51:54.088Z,28.40
2018-09-20T14:54:23.374Z,28.50
2018-09-20T14:56:52.588Z,28.60
2018-09-20T14:59:21.738Z,28.60
2018-09-20T15:01:50.960Z,28.70
2018-09-20T15:04:20.157Z,28.70
2018-09-20T15:06:49.410Z,28.50
2018-09-20T15:09:18.627Z,28.50
2018-09-20T15:11:48.035Z,28.50
2018-09-20T15:14:17.235Z,28.30
2018-09-20T15:16:46.432Z,28.30
2018-09-20T15:19:15.626Z,28.20
2018-09-20T15:21:44.831Z,28.20
2018-09-20T15:24:14.011Z,28.20
2018-09-20T15:26:43.202Z,28.20
2018-09-20T15:29:12.360Z,28.20
2018-09-20T15:31:41.531Z,28.30
2018-09-20T15:34:10.737Z,28.30
2018-09-20T15:36:40.003Z,28.30
2018-09-20T15:39:11.139Z,28.20
2018-09-20T15:41:40.689Z,28.40
2018-09-20T15:44:10.870Z,28.30
2018-09-20T15:47:05.502Z,28.20
2018-09-20T15:49:34.819Z,28.10
2018-09-20T15:52:04.025Z,28.10
2018-09-20T15:54:33.198Z,28.20
2018-09-20T15:57:02.374Z,28.20
2018-09-20T15:59:31.514Z,28.20
2018-09-20T16:02:00.747Z,28.00
2018-09-20T16:04:29.882Z,28.00
2018-09-20T16:06:59.045Z,28.00
2018-09-20T16:09:28.261Z,28.00
2018-09-20T16:11:57.405Z,27.90
2018-09-20T16:14:26.584Z,27.70
2018-09-20T16:16:55.752Z,27.70
2018-09-20T16:19:24.886Z,27.70
2018-09-20T16:21:54.063Z,27.70
2018-09-20T16:24:23.247Z,27.60
2018-09-20T16:26:52.383Z,27.40
2018-09-20T16:29:30.921Z,27.30
2018-09-20T16:32:15.107Z,27.40
2018-09-20T16:36:28.423Z,27.40
2018-09-20T16:39:01.551Z,27.30
2018-09-20T16:41:38.583Z,27.30
2018-09-20T16:44:08.745Z,27.30
2018-09-20T16:46:37.979Z,27.20
2018-09-20T16:49:07.143Z,27.10
2018-09-20T16:51:36.300Z,27.00
2018-09-20T16:54:05.507Z,27.00
2018-09-20T16:56:34.689Z,27.00
2018-09-20T16:59:03.941Z,26.90
2018-09-20T17:01:33.260Z,26.90
2018-09-20T17:04:02.441Z,26.80
2018-09-20T17:06:31.620Z,26.70
2018-09-20T17:09:00.765Z,26.70
2018-09-20T17:11:29.929Z,26.70
2018-09-20T17:13:59.083Z,26.60
2018-09-20T17:16:28.271Z,26.60
2018-09-20T17:18:58.281Z,26.60
2018-09-20T17:21:28.237Z,26.50
2018-09-20T17:23:58.338Z,26.50
2018-09-20T17:26:27.652Z,26.40
2018-09-20T17:28:56.808Z,26.30
2018-09-20T17:31:26.018Z,26.30
2018-09-20T17:33:55.167Z,26.20
2018-09-20T17:36:24.570Z,26.10
2018-09-20T17:38:54.469Z,26.10
2018-09-20T17:41:26.563Z,26.10
2018-09-20T17:44:05.138Z,26.10
2018-09-20T17:46:34.274Z,26.00
2018-09-20T17:49:03.577Z,26.00
2018-09-20T17:51:33.170Z,25.90
2018-09-20T17:54:02.583Z,25.80
2018-09-20T17:56:32.085Z,25.70
2018-09-20T17:59:01.636Z,25.60
2018-09-20T18:01:30.831Z,25.50
2018-09-20T18:04:00.047Z,25.40
2018-09-20T18:06:29.215Z,25.40
2018-09-20T18:08:58.418Z,25.30
2018-09-20T18:11:27.609Z,25.20
2018-09-20T18:13:56.765Z,25.20
2018-09-20T18:16:25.948Z,25.10
2018-09-20T18:18:55.111Z,25.00
2018-09-20T18:21:24.283Z,24.90
2018-09-20T18:23:53.429Z,24.90
2018-09-20T18:26:22.772Z,24.80
2018-09-20T18:28:52.030Z,24.80
2018-09-20T18:31:21.239Z,24.70
2018-09-20T18:33:50.411Z,24.60
2018-09-20T18:36:20.432Z,24.60
2018-09-20T18:38:49.600Z,24.50
2018-09-20T18:41:18.777Z,24.50
2018-09-20T18:43:47.990Z,24.50
2018-09-20T18:46:17.174Z,24.40
2018-09-20T18:48:46.391Z,24.40
2018-09-20T18:51:16.514Z,24.40
2018-09-20T18:53:45.654Z,24.40
2018-09-20T18:56:14.814Z,24.30
2018-09-20T18:58:43.987Z,24.30
2018-09-20T19:01:13.352Z,24.20
2018-09-20T19:03:42.697Z,24.30
2018-09-20T19:06:12.017Z,24.30
2018-09-20T19:08:41.251Z,24.20
2018-09-20T19:11:10.415Z,24.20
2018-09-20T19:13:39.667Z,24.10
2018-09-20T19:16:09.008Z,24.10
2018-09-20T19:18:38.310Z,24.00
2018-09-20T19:21:07.701Z,24.00
2018-09-20T19:23:37.003Z,24.10
2018-09-20T19:26:06.296Z,24.00
2018-09-20T19:28:35.474Z,24.00
2018-09-20T19:31:04.739Z,24.00
2018-09-20T19:33:33.988Z,24.00
2018-09-20T19:36:03.401Z,23.90
2018-09-20T19:38:32.756Z,23.90
2018-09-20T19:41:02.183Z,23.90
2018-09-20T19:43:31.493Z,23.80
2018-09-20T19:46:00.853Z,23.90
2018-09-20T19:48:30.202Z,23.90
2018-09-20T19:50:59.429Z,23.80
2018-09-20T19:53:28.724Z,23.80
2018-09-20T19:55:57.846Z,23.70
2018-09-20T19:58:27.102Z,23.60
2018-09-20T20:00:57.224Z,23.60
2018-09-20T20:03:26.486Z,23.50
2018-09-20T20:05:55.683Z,23.50
2018-09-20T20:08:25.011Z,23.40
2018-09-20T20:10:54.171Z,23.40
2018-09-20T20:13:23.433Z,23.30
2018-09-20T20:15:52.618Z,23.30
2018-09-20T20:18:23.034Z,23.20
2018-09-20T20:20:52.186Z,23.20
2018-09-20T20:23:21.347Z,23.20
2018-09-20T20:25:50.482Z,23.20
2018-09-20T20:28:19.676Z,23.20
2018-09-20T20:30:48.901Z,23.20
2018-09-20T20:33:18.095Z,23.30
2018-09-20T20:35:47.316Z,23.30
2018-09-20T20:38:16.556Z,23.30
2018-09-20T20:40:45.765Z,23.30
2018-09-20T20:43:14.953Z,23.20
2018-09-20T20:45:44.139Z,23.20
2018-09-20T20:48:13.373Z,23.10
2018-09-20T20:50:42.701Z,23.10
2018-09-20T20:53:12.063Z,23.20
2018-09-20T20:55:41.198Z,23.10
2018-09-20T20:58:10.370Z,23.00
2018-09-20T21:00:39.589Z,23.10
2018-09-20T21:03:08.961Z,23.00
2018-09-20T21:05:38.281Z,23.10
2018-09-20T21:08:07.571Z,23.10
2018-09-20T21:10:36.750Z,23.00
2018-09-20T21:13:05.949Z,22.90
2018-09-20T21:15:35.233Z,22.80
2018-09-20T21:18:04.410Z,22.70
2018-09-20T21:20:33.646Z,22.70
2018-09-20T21:23:02.837Z,22.80
2018-09-20T21:25:32.063Z,22.80
2018-09-20T21:28:01.248Z,22.70
2018-09-20T21:30:30.440Z,22.70
2018-09-20T21:32:59.588Z,22.80
2018-09-20T21:35:28.844Z,22.70
2018-09-20T21:37:58.014Z,22.70
2018-09-20T21:40:27.239Z,22.70
2018-09-20T21:42:56.431Z,22.80
2018-09-20T21:45:25.635Z,22.60
2018-09-20T21:47:54.886Z,22.60
2018-09-20T21:50:24.040Z,22.60
2018-09-20T21:52:53.255Z,22.50
2018-09-20T21:55:22.452Z,22.50
2018-09-20T21:57:51.655Z,22.50
2018-09-20T22:00:20.917Z,22.50
2018-09-20T22:02:55.387Z,22.50
2018-09-20T22:05:24.582Z,22.40
2018-09-20T22:07:53.796Z,22.40
2018-09-20T22:10:23.050Z,22.40
2018-09-20T22:12:52.204Z,22.40
2018-09-20T22:15:25.399Z,22.30
2018-09-20T22:17:55.259Z,22.30
2018-09-20T22:20:26.163Z,22.40
2018-09-20T22:22:55.336Z,22.30
2018-09-20T22:25:24.552Z,22.40
2018-09-20T22:27:53.690Z,22.40
2018-09-20T22:30:22.867Z,22.40
2018-09-20T22:32:52.054Z,22.20
2018-09-20T22:35:21.282Z,22.20
2018-09-20T22:37:50.444Z,22.30
2018-09-20T22:40:19.642Z,22.20
2018-09-20T22:42:48.824Z,22.30
2018-09-20T22:45:18.178Z,22.20
2018-09-20T22:47:47.351Z,21.90
2018-09-20T22:50:16.549Z,21.90
2018-09-20T22:52:45.738Z,22.00
2018-09-20T22:55:14.926Z,21.80
2018-09-20T22:57:44.247Z,21.70
2018-09-20T23:00:13.482Z,21.60
2018-09-20T23:02:42.741Z,21.70
2018-09-20T23:05:11.927Z,21.90
2018-09-20T23:07:41.058Z,21.80
2018-09-20T23:10:10.225Z,21.70
2018-09-20T23:12:39.421Z,21.80
2018-09-20T23:15:08.570Z,21.60
2018-09-20T23:17:37.708Z,21.40
2018-09-20T23:20:06.975Z,21.60
2018-09-20T23:22:36.067Z,21.60
2018-09-20T23:25:05.315Z,21.60
2018-09-20T23:27:34.486Z,21.50
2018-09-20T23:30:03.718Z,21.20
2018-09-20T23:32:32.850Z,21.30
2018-09-20T23:35:02.007Z,21.50
2018-09-20T23:37:31.167Z,21.40
2018-09-20T23:40:00.343Z,21.40
2018-09-20T23:42:29.489Z,21.20
2018-09-20T23:44:58.664Z,21.40
2018-09-20T23:47:27.781Z,21.40
2018-09-20T23:49:56.918Z,21.30
2018-09-20T23:52:26.139Z,21.30
2018-09-20T23:54:55.334Z,21.30
2018-09-20T23:57:24.568Z,21.30
2018-09-20T23:59:53.722Z,21.20
